Cuddebackville, New York
Current Conditions -  °F | °C
As of 6:22 AM on Thursday 23 Oct 2014 (Local Time) from KMGJ Reporting Station
Light Rain Light Rain  
Wind Chill: 45°   Ceiling: 2300
Heat Index: 49°   Visibility: 8mi
Dew Point: 46°   Wind: 8mph
Humidity: 90%   Direction: 20°NNE
Pressure: 29.76"   Gusts: NA
Location:  41.47°N, 74.59°W
Report Text: KMGJ 231022Z AUTO 02007KT 8SM -RA SCT009 BKN023 OVC028 09/08 A2976 RMK AO2 RAB21 P0000 T00940078 TSNO
Loading
Personal Weather Stations






























Interactive Weather Map
Tropical Storm Tracking
New forecast layout! Learn more

10-Day Weather Forecast

Advertisements
Track Severe Weather on mobile